Polaris, Montana
Current Conditions -  °F | °C
As of 3:53 PM on Wednesday 22 Oct 2014 (Local Time) from KDLN Reporting Station
Clear Clear  
Wind Chill: 13°   Ceiling: Unl
Heat Index: 13°   Visibility: 10mi
Dew Point: -1°   Wind: 14mph
Humidity: 39%   Direction: 200°SSW
Pressure: 30.05"   Gusts: 20mph
Location:  45.37°N, 113.12°W
Report Text: KDLN 222153Z AUTO 20012G17KT 10SM CLR 13/M01 A3005 RMK AO2 SLP162 T01331006
Loading
Personal Weather Stations






























Interactive Weather Map
Tropical Storm Tracking
New forecast layout! Learn more

10-Day Weather Forecast

Advertisements
Track Severe Weather on mobile